Main page
METAR-TAF:

METAR-TAF

Airports :

Alderney Airport

Alderney,

latitude: 49-43N, longitude: 002-12W, elevation: 71 m

Current weather observation

The report was made 1 hour and 51 minutes ago, at 18:20 UTC
Wind 11 kt from the West/Southwest
Temperature 9°C
Humidity 76%
Pressure 1027 hPa
Visibility 10 km or more
Scattered clouds at a height of 2500 ft

METAR: EGJA 291820Z 25011KT 9999 SCT025 09/05 Q1027

Time: 20:11 (20:11 UTC)

Forecast

The report was made 3 hours and 13 minutes ago, at 16:58 UTC
Forecast valid from 29 at 18 UTC to 30 at 03 UTC
Wind 11 kt from the West
Visibility 10 km or more
Scattered clouds at a height of 2500 ft
Probability 30% :
Temporary
from 29 at 18 UTC to 29 at 20 UTC
Broken clouds at a height of 1400 ft
Probability 40% :
Temporary
from 29 at 20 UTC to 30 at 03 UTC
Visibility: 8000 m
Broken clouds at a height of 900 ft
light rain

TAF: EGJA 291658Z 2918/3003 27011KT 9999 SCT025 PROB30 TEMPO 2918/2920 BKN014 PROB40 TEMPO 2920/3003 8000 -RA BKN009

Weather observations and forecasts of more than 4000 airports (METAR and TAF reports).

The available stations are represented by yellow and red dots on the map.

Hover mouse over dot to see the name of the station.

Then click to see weather observations and forecasts.

To change the map : click on the green buttons with a black cross to zoom in, on the green button with a dash to zoom out, or on the green arrows for adjacent maps.


METAR-TAF: